createdAt,value
2019-01-11T00:01:14.049Z,3.90
2019-01-11T00:03:44.563Z,3.73
2019-01-11T00:06:14.983Z,3.70
2019-01-11T00:08:45.440Z,4.00
2019-01-11T00:11:15.887Z,4.13
2019-01-11T00:13:46.327Z,4.40
2019-01-11T00:16:16.784Z,3.30
2019-01-11T00:18:47.329Z,5.00
2019-01-11T00:21:17.811Z,5.00
2019-01-11T00:23:48.294Z,4.73
2019-01-11T00:26:18.942Z,5.67
2019-01-11T00:28:49.459Z,4.17
2019-01-11T00:31:20.009Z,4.53
2019-01-11T00:33:50.606Z,4.33
2019-01-11T00:36:21.053Z,4.00
2019-01-11T00:38:51.582Z,3.90
2019-01-11T00:41:21.991Z,4.80
2019-01-11T00:43:52.764Z,6.20
2019-01-11T00:46:23.204Z,5.50
2019-01-11T00:48:53.620Z,4.27
2019-01-11T00:51:24.002Z,5.13
2019-01-11T00:53:54.450Z,5.53
2019-01-11T00:56:24.908Z,5.87
2019-01-11T00:58:55.382Z,5.20
2019-01-11T01:01:25.912Z,4.33
2019-01-11T01:03:56.564Z,4.17
2019-01-11T01:06:26.981Z,5.40
2019-01-11T01:08:57.476Z,4.93
2019-01-11T01:11:27.917Z,4.90
2019-01-11T01:13:58.331Z,4.77
2019-01-11T01:16:28.767Z,4.77
2019-01-11T01:18:59.184Z,4.43
2019-01-11T01:21:29.832Z,7.33
2019-01-11T01:24:00.477Z,5.90
2019-01-11T01:26:31.017Z,6.37
2019-01-11T01:29:01.415Z,6.97
2019-01-11T01:31:31.865Z,7.00
2019-01-11T01:34:02.338Z,5.93
2019-01-11T01:36:32.794Z,6.00
2019-01-11T01:39:04.040Z,6.17
2019-01-11T01:41:34.832Z,7.87
2019-01-11T01:44:05.468Z,7.90
2019-01-11T01:46:35.891Z,9.30
2019-01-11T01:49:06.335Z,9.77
2019-01-11T01:51:38.266Z,7.90
2019-01-11T01:54:08.879Z,8.20
2019-01-11T01:56:39.448Z,7.97
2019-01-11T01:59:09.889Z,8.03
2019-01-11T02:01:40.312Z,7.90
2019-01-11T02:04:10.737Z,9.17
2019-01-11T02:06:41.189Z,8.40
2019-01-11T02:09:11.593Z,7.93
2019-01-11T02:11:42.026Z,7.80
2019-01-11T02:14:12.476Z,8.17
2019-01-11T02:16:42.899Z,8.07
2019-01-11T02:19:13.297Z,7.40
2019-01-11T02:21:43.690Z,6.47
2019-01-11T02:24:14.125Z,8.10
2019-01-11T02:26:44.539Z,8.33
2019-01-11T02:29:14.978Z,7.77
2019-01-11T02:31:45.389Z,7.87
2019-01-11T02:34:15.815Z,7.60
2019-01-11T02:36:46.260Z,8.33
2019-01-11T02:39:16.731Z,7.67
2019-01-11T02:41:47.174Z,7.77
2019-01-11T02:44:17.608Z,8.67
2019-01-11T02:46:48.052Z,10.40
2019-01-11T02:49:18.566Z,8.73
2019-01-11T02:51:49.006Z,9.07
2019-01-11T02:54:19.395Z,8.90
2019-01-11T02:56:49.798Z,8.80
2019-01-11T02:59:20.437Z,9.10
2019-01-11T03:01:50.866Z,10.20
2019-01-11T03:04:21.298Z,9.20
2019-01-11T03:06:51.708Z,8.83
2019-01-11T03:09:22.124Z,8.77
2019-01-11T03:11:52.813Z,9.10
2019-01-11T03:14:23.271Z,9.70
2019-01-11T03:16:53.674Z,8.13
2019-01-11T03:19:24.100Z,8.90
2019-01-11T03:21:54.581Z,8.17
2019-01-11T03:24:24.990Z,8.30
2019-01-11T03:26:55.426Z,8.10
2019-01-11T03:29:25.864Z,7.60
2019-01-11T03:31:56.334Z,9.13
2019-01-11T03:34:26.877Z,9.23
2019-01-11T03:36:57.370Z,8.40
2019-01-11T03:39:27.772Z,9.50
2019-01-11T03:42:10.947Z,9.07
2019-01-11T03:44:41.389Z,8.73
2019-01-11T03:47:11.833Z,9.47
2019-01-11T03:49:42.276Z,8.67
2019-01-11T03:52:12.719Z,7.70
2019-01-11T03:54:43.175Z,7.90
2019-01-11T03:57:13.568Z,8.10
2019-01-11T03:59:44.002Z,7.83
2019-01-11T04:02:14.409Z,9.40
2019-01-11T04:04:44.918Z,8.90
2019-01-11T04:07:15.349Z,7.83
2019-01-11T04:09:45.797Z,7.87
2019-01-11T04:12:16.230Z,8.23
2019-01-11T04:14:46.615Z,8.50
2019-01-11T04:17:17.238Z,7.40
2019-01-11T04:19:47.682Z,8.40
2019-01-11T04:22:29.660Z,8.87
2019-01-11T04:25:09.408Z,9.87
2019-01-11T04:27:39.867Z,8.83
2019-01-11T04:30:16.093Z,8.60
2019-01-11T04:32:46.560Z,8.63
2019-01-11T04:35:17.190Z,9.37
2019-01-11T04:37:47.722Z,8.77
2019-01-11T04:40:21.665Z,8.80
2019-01-11T04:42:52.122Z,10.63
2019-01-11T04:45:22.556Z,9.73
2019-01-11T04:47:52.990Z,8.87
2019-01-11T04:50:23.375Z,9.60
2019-01-11T04:52:53.842Z,9.90
2019-01-11T04:55:24.255Z,10.67
2019-01-11T04:57:54.658Z,12.70
2019-01-11T05:00:25.359Z,11.60
2019-01-11T05:02:55.818Z,15.50
2019-01-11T05:05:26.228Z,12.40
2019-01-11T05:07:56.645Z,9.83
2019-01-11T05:10:27.067Z,13.17
2019-01-11T05:12:59.451Z,11.70
2019-01-11T05:15:29.922Z,13.00
2019-01-11T05:18:00.580Z,14.73
2019-01-11T05:20:30.986Z,12.67
2019-01-11T05:23:01.429Z,13.20
2019-01-11T05:25:31.836Z,13.40
2019-01-11T05:28:02.348Z,14.40
2019-01-11T05:30:32.742Z,13.50
2019-01-11T05:33:03.143Z,13.47
2019-01-11T05:35:33.562Z,14.47
2019-01-11T05:38:04.022Z,14.37
2019-01-11T05:40:34.605Z,15.00
2019-01-11T05:43:05.122Z,14.20
2019-01-11T05:45:35.515Z,15.57
2019-01-11T05:48:05.910Z,15.27
2019-01-11T05:50:36.362Z,15.40
2019-01-11T05:53:06.785Z,15.17
2019-01-11T05:55:47.843Z,15.03
2019-01-11T05:58:43.006Z,14.37
2019-01-11T06:01:14.694Z,17.67
2019-01-11T06:03:45.244Z,16.60
2019-01-11T06:06:15.676Z,17.10
2019-01-11T06:08:46.114Z,15.63
2019-01-11T06:11:16.522Z,16.03
2019-01-11T06:13:46.948Z,16.97
2019-01-11T06:16:17.382Z,15.60
2019-01-11T06:18:47.814Z,17.87
2019-01-11T06:21:18.560Z,17.83
2019-01-11T06:23:48.972Z,15.50
2019-01-11T06:26:19.415Z,15.13
2019-01-11T06:28:49.809Z,14.80
2019-01-11T06:31:20.466Z,15.83
2019-01-11T06:33:50.882Z,13.30
2019-01-11T06:36:21.322Z,17.87
2019-01-11T06:38:51.859Z,14.83
2019-01-11T06:41:24.003Z,16.60
2019-01-11T06:43:54.543Z,16.10
2019-01-11T06:46:25.247Z,18.27
2019-01-11T06:48:55.704Z,14.97
2019-01-11T06:51:26.379Z,17.47
2019-01-11T06:53:56.834Z,15.30
2019-01-11T06:56:27.261Z,15.87
2019-01-11T06:58:57.864Z,16.70
2019-01-11T07:01:28.552Z,16.10
2019-01-11T07:03:58.997Z,15.30
2019-01-11T07:06:29.449Z,16.07
2019-01-11T07:08:59.892Z,15.97
2019-01-11T07:11:30.318Z,13.80
2019-01-11T07:14:00.713Z,14.80
2019-01-11T07:16:31.170Z,14.47
2019-01-11T07:19:01.723Z,14.03
2019-01-11T07:21:32.164Z,14.57
2019-01-11T07:24:02.601Z,15.30
2019-01-11T07:26:33.049Z,12.80
2019-01-11T07:29:03.476Z,12.60
2019-01-11T07:31:35.105Z,14.57
2019-01-11T07:34:05.536Z,14.33
2019-01-11T07:36:36.754Z,16.67
2019-01-11T07:39:27.888Z,15.13
2019-01-11T07:41:58.363Z,13.07
2019-01-11T07:44:29.051Z,12.20
2019-01-11T07:46:59.765Z,14.43
2019-01-11T07:49:30.478Z,14.87
2019-01-11T07:52:00.902Z,15.43
2019-01-11T07:54:31.405Z,15.27
2019-01-11T07:57:01.890Z,14.10
2019-01-11T07:59:32.341Z,12.60
2019-01-11T08:02:02.802Z,13.47
2019-01-11T08:04:33.259Z,13.90
2019-01-11T08:07:03.936Z,13.07
2019-01-11T08:09:34.404Z,14.00
2019-01-11T08:12:04.947Z,13.07
2019-01-11T08:14:35.388Z,12.37
2019-01-11T08:17:05.786Z,14.03
2019-01-11T08:19:36.221Z,12.83
2019-01-11T08:22:08.274Z,11.47
2019-01-11T08:24:40.534Z,13.20
2019-01-11T08:27:10.943Z,11.07
2019-01-11T08:29:41.338Z,11.07
2019-01-11T08:32:11.738Z,11.20
2019-01-11T08:34:42.159Z,13.30
2019-01-11T08:37:13.833Z,11.33
2019-01-11T08:39:44.264Z,11.30
2019-01-11T08:42:14.706Z,13.20
2019-01-11T08:44:45.149Z,9.50
2019-01-11T08:47:15.615Z,10.57
2019-01-11T08:49:46.145Z,10.87
2019-01-11T08:52:16.543Z,12.20
2019-01-11T08:54:46.975Z,11.20
2019-01-11T08:57:17.583Z,10.53
2019-01-11T08:59:48.030Z,10.33
2019-01-11T09:02:18.479Z,8.97
2019-01-11T09:04:48.961Z,11.67
2019-01-11T09:07:19.723Z,9.93
2019-01-11T09:09:50.147Z,10.40
2019-01-11T09:12:20.582Z,8.53
2019-01-11T09:14:52.772Z,11.30
2019-01-11T09:17:23.294Z,9.63
2019-01-11T09:19:53.718Z,10.30
2019-01-11T09:22:24.134Z,9.80
2019-01-11T09:24:54.565Z,9.83
2019-01-11T09:27:25.070Z,10.80
2019-01-11T09:29:55.503Z,10.33
2019-01-11T09:32:26.221Z,9.97
2019-01-11T09:34:56.697Z,10.10
2019-01-11T09:37:27.202Z,10.80
2019-01-11T09:39:57.831Z,8.53
2019-01-11T09:42:28.267Z,10.83
2019-01-11T09:44:58.713Z,10.20
2019-01-11T09:47:29.123Z,7.80
2019-01-11T09:49:59.569Z,10.10
2019-01-11T09:52:30.114Z,8.90
2019-01-11T09:55:00.725Z,9.70
2019-01-11T09:57:31.343Z,10.40
2019-01-11T10:00:02.084Z,10.80
2019-01-11T10:02:40.288Z,10.37
2019-01-11T10:05:11.766Z,10.37
2019-01-11T10:07:42.301Z,10.33
2019-01-11T10:10:15.564Z,12.43
2019-01-11T10:12:46.063Z,12.60
2019-01-11T10:15:17.254Z,11.40
2019-01-11T10:17:49.902Z,11.47
2019-01-11T10:20:20.552Z,13.20
2019-01-11T10:22:51.059Z,15.17
2019-01-11T10:25:22.256Z,15.10
2019-01-11T10:27:52.781Z,13.90
2019-01-11T10:30:23.868Z,14.73
2019-01-11T10:32:54.339Z,14.80
2019-01-11T10:35:24.866Z,16.93
2019-01-11T10:37:55.305Z,15.87
2019-01-11T10:40:25.806Z,16.80
2019-01-11T10:42:56.430Z,14.80
2019-01-11T10:45:27.015Z,14.07
2019-01-11T10:47:58.988Z,17.03
2019-01-11T10:50:29.376Z,16.03
2019-01-11T10:52:59.819Z,17.53
2019-01-11T10:55:30.267Z,15.27
2019-01-11T10:58:00.847Z,15.93
2019-01-11T11:00:31.377Z,15.97
2019-01-11T11:03:01.995Z,13.17
2019-01-11T11:05:32.528Z,14.83
2019-01-11T11:08:03.035Z,15.30
2019-01-11T11:10:33.511Z,16.07
2019-01-11T11:13:04.034Z,16.50
2019-01-11T11:15:34.575Z,14.93
2019-01-11T11:18:04.926Z,14.93
2019-01-11T11:20:35.408Z,15.27
2019-01-11T11:23:05.860Z,15.33
2019-01-11T11:25:36.256Z,13.37
2019-01-11T11:28:06.741Z,12.67
2019-01-11T11:30:37.628Z,13.30
2019-01-11T11:33:08.207Z,12.43
2019-01-11T11:35:38.714Z,12.83
2019-01-11T11:38:09.183Z,11.70
2019-01-11T11:40:39.867Z,11.23
2019-01-11T11:43:10.278Z,13.13
2019-01-11T11:45:40.776Z,12.57
2019-01-11T11:48:11.836Z,13.83
2019-01-11T11:50:42.291Z,13.23
2019-01-11T11:53:12.739Z,14.60
2019-01-11T11:55:43.225Z,15.13
2019-01-11T11:58:13.700Z,15.23
2019-01-11T12:00:44.477Z,16.50
2019-01-11T12:03:14.904Z,14.13
2019-01-11T12:05:45.440Z,12.33
2019-01-11T12:08:15.906Z,12.57
2019-01-11T12:10:46.374Z,12.30
2019-01-11T12:13:16.829Z,11.90
2019-01-11T12:15:47.269Z,12.33
2019-01-11T12:18:17.828Z,10.90
2019-01-11T12:20:48.296Z,12.13
2019-01-11T12:23:18.802Z,12.23
2019-01-11T12:25:49.270Z,10.70
2019-01-11T12:28:19.706Z,11.13
2019-01-11T12:30:50.121Z,12.10
2019-01-11T12:33:20.575Z,11.30
2019-01-11T12:35:51.058Z,11.40
2019-01-11T12:38:21.571Z,10.40
2019-01-11T12:40:52.004Z,9.77
2019-01-11T12:43:22.441Z,11.33
2019-01-11T12:45:52.900Z,11.67
2019-01-11T12:48:23.336Z,12.27
2019-01-11T12:50:53.750Z,11.87
2019-01-11T12:53:24.226Z,13.07
2019-01-11T12:55:54.692Z,11.97
2019-01-11T12:58:25.128Z,11.63
2019-01-11T13:00:55.575Z,10.33
2019-01-11T13:03:26.027Z,11.67
2019-01-11T13:05:56.510Z,10.87
2019-01-11T13:08:26.994Z,10.70
2019-01-11T13:10:57.461Z,10.50
2019-01-11T13:13:27.938Z,11.33
2019-01-11T13:15:58.433Z,10.50
2019-01-11T13:18:28.911Z,10.60
2019-01-11T13:20:59.330Z,12.57
2019-01-11T13:23:29.840Z,10.43
2019-01-11T13:26:00.276Z,12.17
2019-01-11T13:28:30.781Z,11.47
2019-01-11T13:31:01.239Z,11.50
2019-01-11T13:33:32.066Z,11.40
2019-01-11T13:36:04.208Z,11.07
2019-01-11T13:38:34.657Z,13.43
2019-01-11T13:41:05.360Z,13.23
2019-01-11T13:43:35.800Z,13.23
2019-01-11T13:46:06.770Z,11.80
2019-01-11T13:48:37.285Z,10.63
2019-01-11T13:51:08.094Z,10.67
2019-01-11T13:53:38.517Z,10.40
2019-01-11T13:56:09.046Z,11.67
2019-01-11T13:58:39.482Z,9.00
2019-01-11T14:01:09.963Z,7.90
2019-01-11T14:03:40.454Z,9.73
2019-01-11T14:06:11.028Z,6.73
2019-01-11T14:08:41.604Z,7.33
2019-01-11T14:11:12.052Z,6.80
2019-01-11T14:13:42.521Z,6.20
2019-01-11T14:16:12.992Z,6.90
2019-01-11T14:18:45.685Z,7.60
2019-01-11T14:21:16.137Z,7.27
2019-01-11T14:23:46.591Z,5.80
2019-01-11T14:26:17.062Z,6.77
2019-01-11T14:28:47.928Z,7.50
2019-01-11T14:31:18.490Z,6.00
2019-01-11T14:33:48.936Z,5.93
2019-01-11T14:36:19.345Z,5.60
2019-01-11T14:38:50.268Z,6.10
2019-01-11T14:41:21.130Z,6.60
2019-01-11T14:43:51.711Z,7.40
2019-01-11T14:46:22.193Z,7.80
2019-01-11T14:48:52.650Z,6.80
2019-01-11T14:51:23.291Z,6.07
2019-01-11T14:53:53.707Z,5.87
2019-01-11T14:56:24.185Z,6.13
2019-01-11T14:58:54.867Z,4.17
2019-01-11T15:01:26.265Z,5.30
2019-01-11T15:03:56.675Z,5.47
2019-01-11T15:06:27.268Z,5.00
2019-01-11T15:08:57.743Z,3.97
2019-01-11T15:11:28.255Z,3.90
2019-01-11T15:13:58.724Z,5.00
2019-01-11T15:16:29.167Z,4.70
2019-01-11T15:18:59.630Z,4.13
2019-01-11T15:21:30.062Z,4.57
2019-01-11T15:24:00.517Z,5.57
2019-01-11T15:26:30.957Z,5.30
2019-01-11T15:29:01.542Z,6.07
2019-01-11T15:31:31.959Z,4.73
2019-01-11T15:34:02.424Z,4.47
2019-01-11T15:36:32.864Z,4.37
2019-01-11T15:39:03.496Z,3.90
2019-01-11T15:41:33.945Z,4.33
2019-01-11T15:44:04.399Z,4.70
2019-01-11T15:46:34.854Z,4.53
2019-01-11T15:49:06.029Z,5.57
2019-01-11T15:51:36.474Z,5.10
2019-01-11T15:54:07.378Z,5.70
2019-01-11T15:56:37.802Z,4.73
2019-01-11T15:59:08.400Z,5.00
2019-01-11T16:01:38.861Z,5.23
2019-01-11T16:04:09.630Z,4.87
2019-01-11T16:06:42.430Z,4.87
2019-01-11T16:10:04.590Z,4.33
2019-01-11T16:13:26.160Z,5.10
2019-01-11T16:16:21.428Z,5.00
2019-01-11T16:18:55.583Z,5.00
2019-01-11T16:21:26.319Z,5.10
2019-01-11T16:23:56.801Z,6.40
2019-01-11T16:26:27.281Z,7.17
2019-01-11T16:28:57.745Z,6.70
2019-01-11T16:31:28.211Z,7.10
2019-01-11T16:33:58.754Z,7.10
2019-01-11T16:36:30.385Z,7.27
2019-01-11T16:39:00.879Z,5.70
2019-01-11T16:41:31.301Z,7.70
2019-01-11T16:44:01.789Z,7.07
2019-01-11T16:46:32.216Z,11.43
2019-01-11T16:49:02.668Z,8.90
2019-01-11T16:51:33.121Z,7.90
2019-01-11T16:54:03.576Z,7.80
2019-01-11T16:56:34.040Z,7.63
2019-01-11T16:59:04.591Z,9.27
2019-01-11T17:01:35.064Z,8.97
2019-01-11T17:04:05.945Z,8.80
2019-01-11T17:06:36.436Z,7.30
2019-01-11T17:09:09.406Z,7.17
2019-01-11T17:11:39.866Z,8.03
2019-01-11T17:14:10.413Z,6.93
2019-01-11T17:16:40.936Z,9.37
2019-01-11T17:19:11.738Z,6.90
2019-01-11T17:21:42.169Z,9.57
2019-01-11T17:24:12.678Z,8.97
2019-01-11T17:26:43.143Z,6.20
2019-01-11T17:29:13.693Z,5.90
2019-01-11T17:31:44.206Z,5.90
2019-01-11T17:34:14.640Z,6.33
2019-01-11T17:36:45.114Z,7.00
2019-01-11T17:39:15.573Z,7.63
2019-01-11T17:41:46.090Z,6.37
2019-01-11T17:44:16.579Z,7.20
2019-01-11T17:46:47.071Z,6.83
2019-01-11T17:49:17.584Z,5.87
2019-01-11T17:51:48.042Z,8.30
2019-01-11T17:54:18.777Z,6.90
2019-01-11T17:56:49.233Z,6.40
2019-01-11T17:59:19.793Z,6.97
2019-01-11T18:01:50.246Z,8.13
2019-01-11T18:04:20.747Z,7.30
2019-01-11T18:06:51.198Z,6.20
2019-01-11T18:09:21.656Z,6.67
2019-01-11T18:11:53.244Z,6.40
2019-01-11T18:14:23.869Z,9.70
2019-01-11T18:16:54.383Z,8.00
2019-01-11T18:19:24.829Z,7.60
2019-01-11T18:21:55.360Z,7.93
2019-01-11T18:24:25.890Z,9.00
2019-01-11T18:26:56.344Z,8.03
2019-01-11T18:29:26.827Z,8.63
2019-01-11T18:31:57.296Z,8.67
2019-01-11T18:34:27.743Z,7.83
2019-01-11T18:36:58.330Z,7.53
2019-01-11T18:39:28.919Z,8.37
2019-01-11T18:41:59.378Z,9.83
2019-01-11T18:44:29.896Z,10.48
2019-01-11T18:47:00.392Z,8.07
2019-01-11T18:49:30.909Z,8.57
2019-01-11T18:52:01.342Z,7.60
2019-01-11T18:54:31.799Z,9.47
2019-01-11T18:57:02.235Z,7.90
2019-01-11T18:59:32.726Z,7.63
2019-01-11T19:02:03.161Z,7.13
2019-01-11T19:04:33.817Z,6.57
2019-01-11T19:07:04.436Z,6.63
2019-01-11T19:09:35.349Z,6.30
2019-01-11T19:12:05.893Z,8.03
2019-01-11T19:14:36.494Z,7.00
2019-01-11T19:17:07.145Z,6.67
2019-01-11T19:19:37.637Z,7.50
2019-01-11T19:22:08.084Z,7.50
2019-01-11T19:24:38.556Z,6.97
2019-01-11T19:27:09.020Z,7.43
2019-01-11T19:29:39.541Z,6.30
2019-01-11T19:32:10.153Z,7.07
2019-01-11T19:34:40.663Z,6.80
2019-01-11T19:37:11.130Z,6.17
2019-01-11T19:39:41.573Z,7.30
2019-01-11T19:42:12.086Z,6.63
2019-01-11T19:44:42.589Z,7.13
2019-01-11T19:47:13.152Z,6.70
2019-01-11T19:49:43.705Z,6.50
2019-01-11T19:52:14.240Z,5.93
2019-01-11T19:54:44.653Z,7.10
2019-01-11T19:57:15.196Z,5.93
2019-01-11T19:59:45.665Z,7.00
2019-01-11T20:02:16.387Z,6.57
2019-01-11T20:04:46.902Z,6.60
2019-01-11T20:07:17.518Z,7.30
2019-01-11T20:09:48.157Z,6.60
2019-01-11T20:12:18.771Z,7.87
2019-01-11T20:14:49.414Z,6.10
2019-01-11T20:17:19.956Z,5.30
2019-01-11T20:19:50.545Z,5.70
2019-01-11T20:22:20.990Z,6.17
2019-01-11T20:24:53.250Z,5.07
2019-01-11T20:27:23.863Z,5.70
2019-01-11T20:29:54.372Z,6.07
2019-01-11T20:32:25.237Z,6.10
2019-01-11T20:34:55.686Z,5.97
2019-01-11T20:37:32.700Z,5.50
2019-01-11T20:40:03.202Z,5.70
2019-01-11T20:42:33.794Z,6.13
2019-01-11T20:45:04.959Z,8.43
2019-01-11T20:47:35.449Z,9.13
2019-01-11T20:50:09.167Z,9.50
2019-01-11T20:52:39.636Z,18.10
2019-01-11T20:55:10.724Z,8.50
2019-01-11T20:57:41.668Z,6.93
2019-01-11T21:00:29.159Z,6.80
2019-01-11T21:02:59.834Z,6.87
2019-01-11T21:05:31.170Z,6.10
2019-01-11T21:08:01.888Z,6.87
2019-01-11T21:10:32.899Z,5.47
2019-01-11T21:13:03.568Z,5.90
2019-01-11T21:15:34.062Z,6.13
2019-01-11T21:18:05.612Z,5.47
2019-01-11T21:20:36.274Z,5.67
2019-01-11T21:23:06.959Z,5.67
2019-01-11T21:25:37.423Z,6.23
2019-01-11T21:28:08.030Z,5.53
2019-01-11T21:30:38.566Z,5.60
2019-01-11T21:33:09.323Z,7.47
2019-01-11T21:35:39.771Z,6.80
2019-01-11T21:38:10.367Z,7.53
2019-01-11T21:40:41.682Z,7.43
2019-01-11T21:43:12.338Z,7.20
2019-01-11T21:45:42.841Z,5.43
2019-01-11T21:48:13.446Z,6.50
2019-01-11T21:50:43.896Z,6.43
2019-01-11T21:53:14.441Z,6.03
2019-01-11T21:55:44.935Z,6.40
2019-01-11T21:58:15.538Z,6.70
2019-01-11T22:00:48.445Z,23.83
2019-01-11T22:03:23.383Z,9.43
2019-01-11T22:05:53.881Z,11.13
2019-01-11T22:08:24.355Z,8.33
2019-01-11T22:10:54.910Z,8.30
2019-01-11T22:13:25.366Z,7.37
2019-01-11T22:15:55.807Z,7.00
2019-01-11T22:18:26.444Z,7.10
2019-01-11T22:20:56.948Z,5.97
2019-01-11T22:23:27.405Z,6.97
2019-01-11T22:25:57.911Z,5.73
2019-01-11T22:28:28.377Z,5.00
2019-01-11T22:30:58.838Z,5.13
2019-01-11T22:33:29.315Z,4.87
2019-01-11T22:35:59.772Z,6.20
2019-01-11T22:38:30.209Z,6.40
2019-01-11T22:41:00.709Z,5.90
2019-01-11T22:43:31.141Z,5.33
2019-01-11T22:46:01.656Z,5.20
2019-01-11T22:48:32.150Z,4.83
2019-01-11T22:51:02.835Z,5.67
2019-01-11T22:53:33.269Z,4.93
2019-01-11T22:56:03.703Z,5.43
2019-01-11T22:58:34.254Z,5.73
2019-01-11T23:01:58.668Z,6.13
2019-01-11T23:04:29.154Z,5.90
2019-01-11T23:07:43.001Z,5.20
2019-01-11T23:11:18.322Z,6.20
2019-01-11T23:13:49.045Z,5.80
2019-01-11T23:16:41.055Z,5.40
2019-01-11T23:19:11.505Z,5.20
2019-01-11T23:21:41.949Z,6.00
2019-01-11T23:24:17.555Z,6.63
2019-01-11T23:26:46.482Z,4.60
2019-01-11T23:29:16.959Z,4.80
2019-01-11T23:31:47.416Z,5.47
2019-01-11T23:34:17.881Z,5.27
2019-01-11T23:36:48.318Z,7.37
2019-01-11T23:39:18.765Z,5.87
2019-01-11T23:41:49.222Z,6.50
2019-01-11T23:44:19.698Z,5.77
2019-01-11T23:46:50.126Z,5.83
2019-01-11T23:49:20.604Z,6.90
2019-01-11T23:51:51.071Z,5.90
2019-01-11T23:54:24.734Z,6.60
2019-01-11T23:56:53.662Z,5.83
2019-01-11T23:59:24.131Z,5.47
